createdAt,value
2023-08-07T00:02:12.312Z,97985.66
2023-08-07T00:04:39.278Z,97993.84
2023-08-07T00:07:06.732Z,97996.56
2023-08-07T00:09:33.695Z,97990.41
2023-08-07T00:12:01.050Z,98000.16
2023-08-07T00:14:28.433Z,97989.59
2023-08-07T00:16:58.089Z,97990.53
2023-08-07T00:19:25.173Z,97985.56
2023-08-07T00:21:52.761Z,97988.03
2023-08-07T00:24:20.451Z,97992.81
2023-08-07T00:26:47.837Z,97982.41
2023-08-07T00:29:15.213Z,97994.25
2023-08-07T00:31:42.691Z,97988.00
2023-08-07T00:34:10.800Z,97995.53
2023-08-07T00:36:38.206Z,97989.41
2023-08-07T00:39:05.265Z,97996.53
2023-08-07T00:41:32.693Z,97989.47
2023-08-07T00:44:00.084Z,97997.53
2023-08-07T00:46:28.113Z,97996.91
2023-08-07T00:48:55.829Z,97990.22
2023-08-07T00:51:24.767Z,97994.16
2023-08-07T00:53:52.708Z,98000.19
2023-08-07T00:56:20.245Z,98010.78
2023-08-07T00:58:47.776Z,98013.41
2023-08-07T01:01:15.819Z,98011.25
2023-08-07T01:03:43.442Z,98008.16
2023-08-07T01:06:10.831Z,98006.84
2023-08-07T01:08:39.142Z,98011.94
2023-08-07T01:11:12.011Z,98003.31
2023-08-07T01:13:50.532Z,97999.59
2023-08-07T01:16:32.692Z,98014.19
2023-08-07T01:19:02.749Z,98006.97
2023-08-07T01:21:30.170Z,98010.03
2023-08-07T01:23:57.616Z,98006.38
2023-08-07T01:26:25.043Z,98010.03
2023-08-07T01:29:16.388Z,98003.31
2023-08-07T01:31:44.227Z,98007.78
2023-08-07T01:34:14.025Z,98004.59
2023-08-07T01:36:41.764Z,98013.44
2023-08-07T01:39:09.904Z,98013.69
2023-08-07T01:41:37.445Z,98014.00
2023-08-07T01:44:05.127Z,98012.50
2023-08-07T01:46:32.633Z,98010.50
2023-08-07T01:49:00.232Z,98011.56
2023-08-07T01:51:27.243Z,98004.69
2023-08-07T01:53:54.308Z,98011.34
2023-08-07T01:56:21.694Z,98005.69
2023-08-07T01:58:48.672Z,98013.53
2023-08-07T02:01:16.265Z,98016.50
2023-08-07T02:03:43.247Z,98014.19
2023-08-07T02:06:10.738Z,98014.13
2023-08-07T02:08:37.795Z,98018.06
2023-08-07T02:11:05.895Z,98013.22
2023-08-07T02:13:33.399Z,98023.03
2023-08-07T02:16:01.288Z,98035.88
2023-08-07T02:18:29.574Z,98027.06
2023-08-07T02:20:56.664Z,98047.97
2023-08-07T02:23:24.005Z,98027.41
2023-08-07T02:25:52.385Z,98034.47
2023-08-07T02:28:20.296Z,98030.69
2023-08-07T02:30:51.903Z,98028.03
2023-08-07T02:33:20.488Z,98040.53
2023-08-07T02:35:47.978Z,98029.47
2023-08-07T02:38:15.336Z,98019.00
2023-08-07T02:40:42.328Z,98031.38
2023-08-07T02:43:09.695Z,98035.75
2023-08-07T02:45:38.088Z,98037.97
2023-08-07T02:48:06.591Z,98040.25
2023-08-07T02:50:34.081Z,98041.75
2023-08-07T02:53:02.616Z,98047.75
2023-08-07T02:55:29.988Z,98046.50
2023-08-07T02:57:57.576Z,98050.53
2023-08-07T03:00:24.959Z,98046.16
2023-08-07T03:02:52.458Z,98043.59
2023-08-07T03:05:19.981Z,98042.91
2023-08-07T03:07:47.214Z,98037.53
2023-08-07T03:10:14.378Z,98048.75
2023-08-07T03:12:41.725Z,98044.63
2023-08-07T03:15:09.780Z,98040.03
2023-08-07T03:17:37.385Z,98056.28
2023-08-07T03:20:05.209Z,98056.66
2023-08-07T03:22:33.203Z,98057.53
2023-08-07T03:25:00.793Z,98052.78
2023-08-07T03:27:28.842Z,98063.66
2023-08-07T03:29:56.369Z,98054.38
2023-08-07T03:32:28.522Z,98058.38
2023-08-07T03:34:56.220Z,98068.63
2023-08-07T03:37:23.908Z,98062.75
2023-08-07T03:39:51.741Z,98051.03
2023-08-07T03:42:19.170Z,98047.63
2023-08-07T03:44:47.632Z,98062.72
2023-08-07T03:47:15.279Z,98059.66
2023-08-07T03:49:42.734Z,98059.59
2023-08-07T03:52:10.021Z,98057.94
2023-08-07T03:54:37.413Z,98064.44
2023-08-07T03:57:04.912Z,98069.34
2023-08-07T03:59:32.376Z,98064.28
2023-08-07T04:01:59.752Z,98075.59
2023-08-07T04:04:27.151Z,98073.63
2023-08-07T04:06:54.743Z,98074.31
2023-08-07T04:09:22.549Z,98077.66
2023-08-07T04:11:50.123Z,98093.19
2023-08-07T04:14:17.463Z,98085.22
2023-08-07T04:16:44.899Z,98089.91
2023-08-07T04:19:12.707Z,98102.41
2023-08-07T04:21:40.094Z,98099.50
2023-08-07T04:24:11.843Z,98088.19
2023-08-07T04:26:39.680Z,98099.75
2023-08-07T04:29:07.603Z,98098.63
2023-08-07T04:31:35.284Z,98104.97
2023-08-07T04:34:02.816Z,98111.88
2023-08-07T04:36:30.217Z,98095.66
2023-08-07T04:38:57.669Z,98094.88
2023-08-07T04:41:25.398Z,98093.44
2023-08-07T04:43:52.792Z,98105.28
2023-08-07T04:46:20.657Z,98101.31
2023-08-07T04:48:48.748Z,98115.59
2023-08-07T04:51:16.731Z,98112.41
2023-08-07T04:53:44.117Z,98116.00
2023-08-07T04:56:11.491Z,98104.03
2023-08-07T04:58:38.962Z,98110.47
2023-08-07T05:01:07.722Z,98110.03
2023-08-07T05:03:35.202Z,98117.28
2023-08-07T05:06:02.847Z,98123.28
2023-08-07T05:08:30.324Z,98115.19
2023-08-07T05:10:57.701Z,98118.88
2023-08-07T05:13:25.074Z,98130.06
2023-08-07T05:15:52.471Z,98122.25
2023-08-07T05:18:20.362Z,98119.78
2023-08-07T05:20:47.914Z,98114.47
2023-08-07T05:23:15.300Z,98127.75
2023-08-07T05:25:42.677Z,98125.56
2023-08-07T05:28:10.036Z,98120.53
2023-08-07T05:30:37.197Z,98137.06
2023-08-07T05:33:04.637Z,98131.53
2023-08-07T05:35:31.732Z,98132.63
2023-08-07T05:37:59.177Z,98140.47
2023-08-07T05:40:26.560Z,98130.50
2023-08-07T05:42:53.995Z,98137.28
2023-08-07T05:45:21.352Z,98143.00
2023-08-07T05:47:48.777Z,98150.47
2023-08-07T05:50:15.804Z,98146.41
2023-08-07T05:52:43.231Z,98159.28
2023-08-07T05:55:10.836Z,98160.59
2023-08-07T05:57:38.204Z,98168.94
2023-08-07T06:00:06.560Z,98173.63
2023-08-07T06:02:39.294Z,98170.41
2023-08-07T06:05:07.021Z,98177.34
2023-08-07T06:07:34.520Z,98173.78
2023-08-07T06:10:02.604Z,98171.72
2023-08-07T06:12:30.055Z,98174.88
2023-08-07T06:14:57.498Z,98184.44
2023-08-07T06:17:24.954Z,98167.34
2023-08-07T06:19:53.166Z,98175.84
2023-08-07T06:22:20.580Z,98178.41
2023-08-07T06:24:48.073Z,98178.91
2023-08-07T06:27:15.918Z,98175.38
2023-08-07T06:29:43.353Z,98183.75
2023-08-07T06:32:11.827Z,98183.66
2023-08-07T06:34:39.049Z,98182.75
2023-08-07T06:37:06.849Z,98188.59
2023-08-07T06:39:34.262Z,98179.69
2023-08-07T06:42:01.890Z,98180.34
2023-08-07T06:44:34.909Z,98180.31
2023-08-07T06:47:02.473Z,98179.38
2023-08-07T06:49:32.675Z,98181.69
2023-08-07T06:52:00.085Z,98179.72
2023-08-07T06:54:27.772Z,98180.53
2023-08-07T06:56:54.760Z,98174.59
2023-08-07T06:59:22.243Z,98177.47
2023-08-07T07:01:49.813Z,98179.56
2023-08-07T07:04:16.857Z,98185.91
2023-08-07T07:06:44.235Z,98184.13
2023-08-07T07:09:11.648Z,98180.34
2023-08-07T07:11:39.029Z,98179.09
2023-08-07T07:14:06.498Z,98179.22
2023-08-07T07:16:34.041Z,98192.72
2023-08-07T07:19:01.187Z,98192.72
2023-08-07T07:21:28.578Z,98180.34
2023-08-07T07:23:55.952Z,98181.91
2023-08-07T07:26:23.342Z,98198.41
2023-08-07T07:28:52.321Z,98191.41
2023-08-07T07:31:19.891Z,98196.28
2023-08-07T07:33:47.462Z,98210.34
2023-08-07T07:36:18.929Z,98211.22
2023-08-07T07:38:49.502Z,98204.09
2023-08-07T07:41:17.179Z,98219.56
2023-08-07T07:43:44.638Z,98217.06
2023-08-07T07:46:12.825Z,98209.34
2023-08-07T07:48:40.316Z,98220.75
2023-08-07T07:51:07.860Z,98225.63
2023-08-07T07:53:35.377Z,98230.03
2023-08-07T07:56:02.410Z,98221.16
2023-08-07T07:58:29.789Z,98228.13
2023-08-07T08:00:57.774Z,98227.94
2023-08-07T08:03:25.520Z,98236.22
2023-08-07T08:05:53.335Z,98255.03
2023-08-07T08:08:20.492Z,98266.31
2023-08-07T08:10:49.043Z,98265.97
2023-08-07T08:13:17.143Z,98276.56
2023-08-07T08:15:45.451Z,98267.09
2023-08-07T08:18:13.139Z,98266.75
2023-08-07T08:20:40.438Z,98271.38
2023-08-07T08:23:07.462Z,98274.75
2023-08-07T08:25:34.465Z,98275.47
2023-08-07T08:28:01.578Z,98284.38
2023-08-07T08:30:29.532Z,98279.41
2023-08-07T08:32:57.321Z,98286.31
2023-08-07T08:35:24.346Z,98291.16
2023-08-07T08:37:51.668Z,98290.03
2023-08-07T08:40:20.623Z,98291.00
2023-08-07T08:42:48.235Z,98294.59
2023-08-07T08:45:16.923Z,98299.31
2023-08-07T08:47:45.894Z,98293.63
2023-08-07T08:50:15.613Z,98293.59
2023-08-07T08:52:45.891Z,98301.88
2023-08-07T08:55:15.085Z,98302.16
2023-08-07T08:57:42.979Z,98310.78
2023-08-07T09:00:22.417Z,98308.22
2023-08-07T09:02:51.229Z,98308.72
2023-08-07T09:05:21.229Z,98313.56
2023-08-07T09:07:51.724Z,98301.22
2023-08-07T09:10:21.699Z,98311.09
2023-08-07T09:13:04.681Z,98297.00
2023-08-07T09:15:33.717Z,98308.34
2023-08-07T09:18:01.953Z,98310.53
2023-08-07T09:20:29.639Z,98308.16
2023-08-07T09:22:56.688Z,98301.00
2023-08-07T09:25:34.813Z,98304.03
2023-08-07T09:28:06.464Z,98305.56
2023-08-07T09:30:36.071Z,98303.47
2023-08-07T09:33:04.150Z,98299.72
2023-08-07T09:35:33.247Z,98298.81
2023-08-07T09:38:00.297Z,98305.38
2023-08-07T09:40:27.471Z,98318.69
2023-08-07T09:42:55.614Z,98306.44
2023-08-07T09:45:27.961Z,98314.94
2023-08-07T09:48:02.808Z,98324.94
2023-08-07T09:50:31.298Z,98331.75
2023-08-07T09:52:59.158Z,98329.25
2023-08-07T09:55:27.637Z,98320.94
2023-08-07T09:57:55.629Z,98326.00
2023-08-07T10:00:23.015Z,98340.81
2023-08-07T10:02:51.672Z,98342.22
2023-08-07T10:05:20.347Z,98337.00
2023-08-07T10:07:48.532Z,98338.53
2023-08-07T10:10:16.007Z,98335.28
2023-08-07T10:12:43.296Z,98339.13
2023-08-07T10:15:11.065Z,98333.19
2023-08-07T10:17:38.205Z,98338.06
2023-08-07T10:20:07.382Z,98331.88
2023-08-07T10:22:38.092Z,98329.25
2023-08-07T10:25:07.708Z,98333.00
2023-08-07T10:27:39.701Z,98332.41
2023-08-07T10:30:13.823Z,98332.81
2023-08-07T10:32:43.124Z,98337.16
2023-08-07T10:35:11.210Z,98344.78
2023-08-07T10:37:46.547Z,98342.38
2023-08-07T10:40:14.469Z,98338.19
2023-08-07T10:43:19.108Z,98332.88
2023-08-07T10:45:46.510Z,98336.50
2023-08-07T10:48:15.010Z,98343.09
2023-08-07T10:51:12.057Z,98333.81
2023-08-07T10:53:49.912Z,98339.53
2023-08-07T10:56:35.519Z,98343.69
2023-08-07T10:59:11.572Z,98355.47
2023-08-07T11:01:44.037Z,98340.19
2023-08-07T11:04:14.541Z,98343.06
2023-08-07T11:06:44.268Z,98345.63
2023-08-07T11:09:12.153Z,98340.81
2023-08-07T11:11:50.204Z,98349.06
2023-08-07T11:14:19.312Z,98358.34
2023-08-07T11:16:48.729Z,98362.13
2023-08-07T11:19:17.645Z,98362.09
2023-08-07T11:21:45.685Z,98356.66
2023-08-07T11:24:17.561Z,98355.00
2023-08-07T11:26:47.696Z,98347.09
2023-08-07T11:29:19.926Z,98359.69
2023-08-07T11:31:47.603Z,98367.69
2023-08-07T11:34:14.724Z,98354.34
2023-08-07T11:36:45.317Z,98357.78
2023-08-07T11:39:14.271Z,98360.03
2023-08-07T11:41:42.138Z,98357.66
2023-08-07T11:44:09.368Z,98360.84
2023-08-07T11:46:37.212Z,98348.31
2023-08-07T11:49:08.813Z,98359.63
2023-08-07T11:51:36.342Z,98366.25
2023-08-07T11:54:04.287Z,98359.63
2023-08-07T11:56:32.735Z,98365.59
2023-08-07T11:59:00.037Z,98360.59
2023-08-07T12:01:28.058Z,98361.44
2023-08-07T12:04:10.924Z,98366.38
2023-08-07T12:06:41.606Z,98367.00
2023-08-07T12:09:13.929Z,98369.75
2023-08-07T12:11:41.226Z,98366.22
2023-08-07T12:14:08.600Z,98375.38
2023-08-07T12:16:38.675Z,98377.53
2023-08-07T12:19:05.624Z,98381.75
2023-08-07T12:21:34.555Z,98387.19
2023-08-07T12:24:01.900Z,98386.88
2023-08-07T12:26:29.178Z,98381.88
2023-08-07T12:28:56.234Z,98385.88
2023-08-07T12:31:23.430Z,98390.16
2023-08-07T12:33:51.196Z,98383.25
2023-08-07T12:36:20.857Z,98394.41
2023-08-07T12:38:48.566Z,98382.59
2023-08-07T12:43:46.674Z,98393.00
2023-08-07T12:48:43.606Z,98394.16
2023-08-07T12:51:10.606Z,98402.13
2023-08-07T12:53:37.588Z,98394.41
2023-08-07T12:56:06.564Z,98405.53
2023-08-07T12:58:33.554Z,98409.22
2023-08-07T13:01:01.059Z,98411.47
2023-08-07T13:03:28.226Z,98421.88
2023-08-07T13:05:55.673Z,98419.75
2023-08-07T13:08:23.093Z,98422.81
2023-08-07T13:10:50.731Z,98423.28
2023-08-07T13:13:18.215Z,98414.56
2023-08-07T13:15:45.251Z,98429.34
2023-08-07T13:18:12.321Z,98427.16
2023-08-07T13:20:39.748Z,98422.94
2023-08-07T13:23:07.621Z,98419.66
2023-08-07T13:25:35.532Z,98425.97
2023-08-07T13:28:07.583Z,98420.66
2023-08-07T13:30:37.340Z,98426.13
2023-08-07T13:33:05.491Z,98436.44
2023-08-07T13:35:34.587Z,98423.88
2023-08-07T13:38:06.343Z,98414.25
2023-08-07T13:40:34.597Z,98404.50
2023-08-07T13:43:04.235Z,98412.59
2023-08-07T13:45:31.600Z,98411.69
2023-08-07T13:47:59.008Z,98401.69
2023-08-07T13:50:26.189Z,98397.44
2023-08-07T13:53:04.107Z,98384.31
2023-08-07T13:55:41.339Z,98390.25
2023-08-07T13:58:08.391Z,98396.75
2023-08-07T14:00:36.612Z,98386.47
2023-08-07T14:03:04.724Z,98387.28
2023-08-07T14:05:31.766Z,98379.44
2023-08-07T14:07:59.046Z,98385.41
2023-08-07T14:10:26.165Z,98387.53
2023-08-07T14:12:53.687Z,98386.97
2023-08-07T14:15:21.507Z,98386.94
2023-08-07T14:17:48.608Z,98391.53
2023-08-07T14:20:15.685Z,98381.63
2023-08-07T14:22:42.873Z,98379.63
2023-08-07T14:25:10.160Z,98384.03
2023-08-07T14:27:37.537Z,98380.38
2023-08-07T14:30:05.030Z,98383.91
2023-08-07T14:32:32.016Z,98384.31
2023-08-07T14:34:59.130Z,98386.75
2023-08-07T14:37:26.166Z,98384.94
2023-08-07T14:39:53.774Z,98384.91
2023-08-07T14:42:21.146Z,98377.22
2023-08-07T14:44:48.930Z,98382.81
2023-08-07T14:47:16.506Z,98381.13
2023-08-07T14:49:44.361Z,98384.84
2023-08-07T14:52:11.460Z,98389.31
2023-08-07T14:54:38.871Z,98394.31
2023-08-07T14:57:06.007Z,98397.13
2023-08-07T14:59:33.441Z,98395.16
2023-08-07T15:02:00.651Z,98387.19
2023-08-07T15:04:28.231Z,98384.81
2023-08-07T15:06:57.973Z,98381.66
2023-08-07T15:09:26.493Z,98382.56
2023-08-07T15:11:53.940Z,98383.91
2023-08-07T15:14:21.435Z,98385.16
2023-08-07T15:16:48.844Z,98373.41
2023-08-07T15:19:15.849Z,98377.31
2023-08-07T15:21:43.355Z,98367.81
2023-08-07T15:24:10.348Z,98370.38
2023-08-07T15:26:37.843Z,98371.31
2023-08-07T15:29:05.528Z,98389.09
2023-08-07T15:31:33.496Z,98398.25
2023-08-07T15:34:00.642Z,98403.50
2023-08-07T15:36:27.736Z,98415.03
2023-08-07T15:38:54.746Z,98403.38
2023-08-07T15:41:22.754Z,98399.19
2023-08-07T15:43:52.989Z,98394.50
2023-08-07T15:46:20.051Z,98394.38
2023-08-07T15:48:47.187Z,98392.63
2023-08-07T15:51:14.407Z,98388.44
2023-08-07T15:53:41.499Z,98385.31
2023-08-07T15:56:08.685Z,98391.53
2023-08-07T15:58:36.194Z,98393.84
2023-08-07T16:01:03.263Z,98396.41
2023-08-07T16:03:30.288Z,98392.59
2023-08-07T16:05:57.759Z,98387.31
2023-08-07T16:08:24.952Z,98396.31
2023-08-07T16:10:53.833Z,98389.25
2023-08-07T16:13:21.384Z,98390.34
2023-08-07T16:15:48.408Z,98386.91
2023-08-07T16:18:15.432Z,98392.47
2023-08-07T16:20:42.828Z,98393.41
2023-08-07T16:23:09.823Z,98379.69
2023-08-07T16:25:36.898Z,98383.94
2023-08-07T16:28:05.676Z,98380.66
2023-08-07T16:30:32.946Z,98382.16
2023-08-07T16:32:59.953Z,98379.34
2023-08-07T16:35:27.193Z,98379.19
2023-08-07T16:37:54.193Z,98386.53
2023-08-07T16:40:21.299Z,98391.09
2023-08-07T16:42:48.259Z,98381.22
2023-08-07T16:45:15.871Z,98377.06
2023-08-07T16:47:43.144Z,98381.63
2023-08-07T16:50:12.921Z,98376.13
2023-08-07T16:52:40.276Z,98383.72
2023-08-07T16:55:08.485Z,98388.34
2023-08-07T16:57:35.517Z,98382.47
2023-08-07T17:00:05.152Z,98377.38
2023-08-07T17:02:32.186Z,98385.91
2023-08-07T17:04:59.683Z,98380.00
2023-08-07T17:07:26.707Z,98385.66
2023-08-07T17:09:54.071Z,98380.88
2023-08-07T17:12:21.119Z,98384.28
2023-08-07T17:14:48.851Z,98387.38
2023-08-07T17:17:15.805Z,98386.94
2023-08-07T17:19:42.788Z,98387.47
2023-08-07T17:22:09.797Z,98380.84
2023-08-07T17:24:36.829Z,98377.88
2023-08-07T17:27:04.088Z,98385.09
2023-08-07T17:29:31.288Z,98378.09
2023-08-07T17:31:59.574Z,98385.38
2023-08-07T17:34:26.982Z,98383.06
2023-08-07T17:36:54.394Z,98387.97
2023-08-07T17:39:21.496Z,98391.66
2023-08-07T17:41:48.886Z,98396.66
2023-08-07T17:44:16.294Z,98392.25
2023-08-07T17:46:43.829Z,98387.09
2023-08-07T17:49:11.507Z,98399.03
2023-08-07T17:51:38.937Z,98401.75
2023-08-07T17:54:05.951Z,98395.88
2023-08-07T17:56:34.814Z,98392.75
2023-08-07T17:59:03.337Z,98396.34
2023-08-07T18:01:30.935Z,98399.44
2023-08-07T18:04:01.337Z,98398.28
2023-08-07T18:06:29.498Z,98405.34
2023-08-07T18:08:57.262Z,98405.97
2023-08-07T18:11:24.505Z,98406.88
2023-08-07T18:13:51.537Z,98404.03
2023-08-07T18:16:19.104Z,98411.44
2023-08-07T18:18:46.104Z,98416.63
2023-08-07T18:21:13.341Z,98409.66
2023-08-07T18:23:40.334Z,98410.81
2023-08-07T18:26:07.814Z,98404.06
2023-08-07T18:28:35.079Z,98407.03
2023-08-07T18:31:02.425Z,98413.97
2023-08-07T18:33:29.718Z,98413.13
2023-08-07T18:36:00.899Z,98418.03
2023-08-07T18:38:31.441Z,98413.59
2023-08-07T18:40:58.811Z,98425.78
2023-08-07T18:43:26.327Z,98422.25
2023-08-07T18:45:53.946Z,98425.63
2023-08-07T18:48:21.081Z,98421.97
2023-08-07T18:50:48.607Z,98421.06
2023-08-07T18:53:16.090Z,98431.19
2023-08-07T18:55:43.554Z,98424.44
2023-08-07T18:58:10.616Z,98429.34
2023-08-07T19:00:37.660Z,98430.94
2023-08-07T19:03:05.759Z,98426.06
2023-08-07T19:05:33.289Z,98437.69
2023-08-07T19:08:00.322Z,98433.91
2023-08-07T19:10:27.385Z,98438.22
2023-08-07T19:12:54.854Z,98436.72
2023-08-07T19:15:21.982Z,98437.84
2023-08-07T19:17:49.614Z,98438.91
2023-08-07T19:20:16.923Z,98433.81
2023-08-07T19:22:43.908Z,98437.47
2023-08-07T19:25:11.438Z,98434.03
2023-08-07T19:27:38.467Z,98431.56
2023-08-07T19:30:06.693Z,98439.22
2023-08-07T19:32:33.688Z,98442.56
2023-08-07T19:35:00.895Z,98434.81
2023-08-07T19:37:27.989Z,98436.47
2023-08-07T19:39:55.602Z,98439.53
2023-08-07T19:42:22.857Z,98440.66
2023-08-07T19:44:50.277Z,98439.28
2023-08-07T19:47:30.324Z,98444.91
2023-08-07T19:50:03.509Z,98445.59
2023-08-07T19:52:31.050Z,98443.41
2023-08-07T19:54:58.227Z,98450.25
2023-08-07T19:57:25.631Z,98448.03
2023-08-07T19:59:53.020Z,98443.78
2023-08-07T20:02:20.657Z,98443.16
2023-08-07T20:04:48.577Z,98445.34
2023-08-07T20:07:15.696Z,98445.19
2023-08-07T20:09:43.794Z,98450.56
2023-08-07T20:12:11.547Z,98451.50
2023-08-07T20:14:39.113Z,98448.72
2023-08-07T20:17:07.511Z,98437.84
2023-08-07T20:19:35.055Z,98440.84
2023-08-07T20:22:02.263Z,98455.03
2023-08-07T20:24:29.650Z,98461.50
2023-08-07T20:26:58.297Z,98447.97
2023-08-07T20:29:25.950Z,98453.94
2023-08-07T20:31:53.476Z,98441.13
2023-08-07T20:34:20.610Z,98440.16
2023-08-07T20:36:47.827Z,98443.47
2023-08-07T20:39:15.520Z,98436.41
2023-08-07T20:41:44.277Z,98444.13
2023-08-07T20:44:11.336Z,98442.66
2023-08-07T20:46:38.841Z,98447.47
2023-08-07T20:49:06.264Z,98439.69
2023-08-07T20:51:34.176Z,98441.41
2023-08-07T20:54:01.258Z,98436.25
2023-08-07T20:56:28.437Z,98436.72
2023-08-07T20:58:55.881Z,98429.34
2023-08-07T21:01:23.279Z,98432.25
2023-08-07T21:03:50.431Z,98428.81
2023-08-07T21:06:17.501Z,98436.41
2023-08-07T21:08:44.562Z,98422.06
2023-08-07T21:11:11.575Z,98424.66
2023-08-07T21:13:39.678Z,98421.75
2023-08-07T21:16:06.874Z,98432.22
2023-08-07T21:18:33.967Z,98419.25
2023-08-07T21:21:01.117Z,98421.25
2023-08-07T21:23:28.174Z,98420.59
2023-08-07T21:25:55.680Z,98414.97
2023-08-07T21:28:22.710Z,98421.53
2023-08-07T21:30:50.770Z,98414.50
2023-08-07T21:33:18.020Z,98407.09
2023-08-07T21:35:47.190Z,98402.78
2023-08-07T21:38:14.925Z,98410.38
2023-08-07T21:40:41.882Z,98404.31
2023-08-07T21:43:09.065Z,98405.97
2023-08-07T21:45:36.121Z,98406.38
2023-08-07T21:48:04.023Z,98400.44
2023-08-07T21:50:31.073Z,98403.31
2023-08-07T21:52:58.075Z,98408.25
2023-08-07T21:55:25.141Z,98403.56
2023-08-07T21:57:52.570Z,98409.66
2023-08-07T22:00:21.291Z,98407.06
2023-08-07T22:02:48.583Z,98409.44
2023-08-07T22:05:18.897Z,98413.69
2023-08-07T22:07:47.202Z,98408.06
2023-08-07T22:10:16.218Z,98411.47
2023-08-07T22:12:43.900Z,98407.25
2023-08-07T22:15:12.166Z,98411.28
2023-08-07T22:17:39.715Z,98412.00
2023-08-07T22:20:08.551Z,98411.50
2023-08-07T22:22:35.636Z,98414.91
2023-08-07T22:25:03.049Z,98413.16
2023-08-07T22:27:30.477Z,98405.16
2023-08-07T22:29:59.475Z,98402.38
2023-08-07T22:32:26.502Z,98404.72
2023-08-07T22:34:53.840Z,98408.56
2023-08-07T22:37:21.907Z,98403.44
2023-08-07T22:39:49.379Z,98398.16
2023-08-07T22:42:16.490Z,98399.69
2023-08-07T22:44:43.864Z,98390.75
2023-08-07T22:47:11.259Z,98393.56
2023-08-07T22:49:38.651Z,98395.88
2023-08-07T22:52:05.898Z,98391.72
2023-08-07T22:54:33.313Z,98390.66
2023-08-07T22:57:00.275Z,98384.03
2023-08-07T22:59:27.834Z,98387.88
2023-08-07T23:01:57.159Z,98378.13
2023-08-07T23:04:24.592Z,98375.38
2023-08-07T23:06:51.531Z,98380.56
2023-08-07T23:09:20.600Z,98379.41
2023-08-07T23:11:48.068Z,98370.69
2023-08-07T23:14:15.229Z,98380.41
2023-08-07T23:16:42.676Z,98380.56
2023-08-07T23:19:11.580Z,98377.78
2023-08-07T23:21:40.869Z,98375.25
2023-08-07T23:24:09.990Z,98383.47
2023-08-07T23:26:37.125Z,98377.72
2023-08-07T23:29:04.146Z,98373.63
2023-08-07T23:31:31.238Z,98374.53
2023-08-07T23:33:59.033Z,98365.50
2023-08-07T23:36:26.447Z,98369.50
2023-08-07T23:38:53.853Z,98362.00
2023-08-07T23:41:22.483Z,98367.28
2023-08-07T23:43:50.482Z,98360.00
2023-08-07T23:46:19.512Z,98366.31
2023-08-07T23:48:47.532Z,98371.44
2023-08-07T23:51:15.066Z,98362.31
2023-08-07T23:53:42.099Z,98356.69
2023-08-07T23:56:10.928Z,98353.84
2023-08-07T23:58:38.076Z,98355.31
